Time;durP1;ratioP1;P1;durP2;ratioP2;P2;SDS_P1;SDS_P2;PMS_P1;PMS_P2;Temp;Humidity;BMP_temperature;BMP_pressure;BME280_temperature;BME280_humidity;BME280_pressure;Samples;Min_cycle;Max_cycle;Signal;HPM_P1;HPM_P2
2023/07/24 00:01:32;;;;;;;0.00;0.00;;;;;;;;;;5119068;27;20058;-87
2023/07/24 00:04:00;;;;;;;0.00;0.00;;;;;;;;;;5137251;27;20160;-85
2023/07/24 00:06:26;;;;;;;0.10;0.10;;;;;;;;;;5115099;27;20043;-84
2023/07/24 00:08:52;;;;;;;0.13;0.13;;;;;;;;;;5101364;27;20023;-86
2023/07/24 00:11:20;;;;;;;0.00;0.00;;;;;;;;;;5245407;22;20040;-90
2023/07/24 00:13:50;;;;;;;0.10;0.10;;;;;;;;;;5078527;28;20048;-90
2023/07/24 00:16:19;;;;;;;0.00;0.00;;;;;;;;;;5079104;28;20052;-89
2023/07/24 00:19:05;;;;;;;0.10;0.10;;;;;;;;;;5097235;28;20048;-90
2023/07/24 00:21:37;;;;;;;0.10;0.10;;;;;;;;;;5079435;28;20049;-90
2023/07/24 00:24:05;;;;;;;0.10;0.10;;;;;;;;;;5079077;28;20039;-91
2023/07/24 00:26:31;;;;;;;0.00;0.00;;;;;;;;;;5096528;28;20028;-88
2023/07/24 00:29:01;;;;;;;0.00;0.00;;;;;;;;;;5079015;28;20047;-86
2023/07/24 00:31:30;;;;;;;0.10;0.10;;;;;;;;;;5079222;28;20025;-91
2023/07/24 00:34:00;;;;;;;0.10;0.10;;;;;;;;;;5078172;28;20134;-88
2023/07/24 00:36:26;;;;;;;0.00;0.00;;;;;;;;;;5077495;28;20044;-88
2023/07/24 00:39:10;;;;;;;0.20;0.20;;;;;;;;;;5079558;28;20486;-89
2023/07/24 00:41:41;;;;;;;0.10;0.10;;;;;;;;;;5094331;28;20075;-89
2023/07/24 00:44:09;;;;;;;0.00;0.00;;;;;;;;;;5129599;23;20060;-91
2023/07/24 00:46:41;;;;;;;0.00;0.00;;;;;;;;;;5118307;28;20031;-89
2023/07/24 00:49:08;;;;;;;0.10;0.10;;;;;;;;;;5100748;28;20047;-89
2023/07/24 00:51:44;;;;;;;0.08;0.08;;;;;;;;;;5136838;28;20023;-89
2023/07/24 00:54:13;;;;;;;0.10;0.10;;;;;;;;;;5135120;28;20027;-91
2023/07/24 00:56:42;;;;;;;0.03;0.03;;;;;;;;;;5103573;28;20023;-89
2023/07/24 00:59:15;;;;;;;0.00;0.00;;;;;;;;;;5137157;28;20047;-91
2023/07/24 01:01:42;;;;;;;0.08;0.08;;;;;;;;;;5101026;28;20063;-90
2023/07/24 01:04:08;;;;;;;0.10;0.10;;;;;;;;;;5118728;28;20027;-89
2023/07/24 01:06:43;;;;;;;0.05;0.05;;;;;;;;;;5118394;28;20440;-91
2023/07/24 01:09:13;;;;;;;0.03;0.03;;;;;;;;;;5122841;28;20131;-89
2023/07/24 01:11:57;;;;;;;0.03;0.03;;;;;;;;;;5098368;28;20040;-88
2023/07/24 01:14:29;;;;;;;0.00;0.00;;;;;;;;;;5079381;28;20042;-90
2023/07/24 01:17:00;;;;;;;0.10;0.10;;;;;;;;;;5097479;28;20055;-90
2023/07/24 01:19:49;;;;;;;0.00;0.00;;;;;;;;;;5097826;28;20051;-91
2023/07/24 01:22:18;;;;;;;0.10;0.10;;;;;;;;;;5105592;28;20052;-90
2023/07/24 01:24:50;;;;;;;0.10;0.10;;;;;;;;;;5118171;28;20023;-91
2023/07/24 01:27:27;;;;;;;0.10;0.10;;;;;;;;;;5115145;28;20035;-90
2023/07/24 01:29:53;;;;;;;0.10;0.10;;;;;;;;;;5115170;28;20031;-88
2023/07/24 01:32:20;;;;;;;0.00;0.00;;;;;;;;;;5116018;28;20039;-92
2023/07/24 01:34:47;;;;;;;0.03;0.03;;;;;;;;;;5117597;28;20043;-89
2023/07/24 01:37:21;;;;;;;0.05;0.05;;;;;;;;;;5117800;28;20044;-88
2023/07/24 01:39:50;;;;;;;0.00;0.00;;;;;;;;;;5119280;28;20027;-90
2023/07/24 01:42:17;;;;;;;0.10;0.10;;;;;;;;;;5118938;28;20107;-89
2023/07/24 01:44:46;;;;;;;0.10;0.10;;;;;;;;;;5121534;28;20122;-89
2023/07/24 01:47:12;;;;;;;0.00;0.00;;;;;;;;;;5120923;28;20036;-89
2023/07/24 01:49:45;;;;;;;0.10;0.10;;;;;;;;;;5122012;28;20061;-89
2023/07/24 01:52:24;;;;;;;0.10;0.10;;;;;;;;;;5139278;28;20092;-87
2023/07/24 01:54:50;;;;;;;0.10;0.10;;;;;;;;;;5119895;28;20874;-90
2023/07/24 01:57:18;;;;;;;0.03;0.03;;;;;;;;;;5122058;28;20044;-87
2023/07/24 01:59:45;;;;;;;0.03;0.03;;;;;;;;;;5139351;28;20035;-90
2023/07/24 02:02:12;;;;;;;0.10;0.10;;;;;;;;;;5121385;28;20040;-91
2023/07/24 02:04:48;;;;;;;0.00;0.00;;;;;;;;;;5137641;28;20167;-91
2023/07/24 02:07:14;;;;;;;0.00;0.00;;;;;;;;;;5121349;28;20053;-91
2023/07/24 02:09:43;;;;;;;0.00;0.00;;;;;;;;;;5120298;28;20035;-90
2023/07/24 02:12:10;;;;;;;0.00;0.00;;;;;;;;;;5118616;28;20039;-89
2023/07/24 02:14:36;;;;;;;0.00;0.00;;;;;;;;;;5120113;28;20061;-90
2023/07/24 02:17:07;;;;;;;0.03;0.03;;;;;;;;;;5138402;28;20028;-91
2023/07/24 02:19:33;;;;;;;0.00;0.00;;;;;;;;;;5120796;28;20065;-92
2023/07/24 02:22:01;;;;;;;0.00;0.00;;;;;;;;;;5120469;28;20036;-90
2023/07/24 02:24:27;;;;;;;0.10;0.10;;;;;;;;;;5121299;28;20023;-90
2023/07/24 02:26:53;;;;;;;0.00;0.00;;;;;;;;;;5113755;28;20051;-90
2023/07/24 02:29:19;;;;;;;0.00;0.00;;;;;;;;;;5098702;28;20036;-88
2023/07/24 02:31:52;;;;;;;0.00;0.00;;;;;;;;;;5116893;28;20040;-90
2023/07/24 02:34:24;;;;;;;0.00;0.00;;;;;;;;;;5083841;28;20020;-91
2023/07/24 02:36:51;;;;;;;0.00;0.00;;;;;;;;;;5100332;28;20049;-88
2023/07/24 02:39:18;;;;;;;0.10;0.10;;;;;;;;;;5117874;28;20055;-90
2023/07/24 02:41:45;;;;;;;0.10;0.10;;;;;;;;;;5100154;28;20040;-90
2023/07/24 02:44:11;;;;;;;0.20;0.20;;;;;;;;;;5117107;28;20517;-90
2023/07/24 02:46:38;;;;;;;0.05;0.05;;;;;;;;;;5101639;28;20040;-89
2023/07/24 02:49:04;;;;;;;0.00;0.00;;;;;;;;;;5082185;28;20132;-88
2023/07/24 02:51:32;;;;;;;0.00;0.00;;;;;;;;;;5117493;28;20028;-89
2023/07/24 02:53:58;;;;;;;0.10;0.10;;;;;;;;;;5095162;23;20072;-90
2023/07/24 02:56:27;;;;;;;0.00;0.00;;;;;;;;;;5013112;28;20054;-89
2023/07/24 02:58:54;;;;;;;0.00;0.00;;;;;;;;;;4997415;28;20072;-89
2023/07/24 03:01:20;;;;;;;0.00;0.00;;;;;;;;;;5180932;22;20053;-92
2023/07/24 03:03:47;;;;;;;0.10;0.10;;;;;;;;;;4978952;28;20039;-91
2023/07/24 03:06:13;;;;;;;0.10;0.10;;;;;;;;;;4993442;28;20022;-90
2023/07/24 03:08:39;;;;;;;0.10;0.10;;;;;;;;;;4992598;28;20053;-89
2023/07/24 03:11:06;;;;;;;0.00;0.00;;;;;;;;;;4993968;28;20057;-91
2023/07/24 03:13:36;;;;;;;0.10;0.10;;;;;;;;;;4977675;28;20102;-89
2023/07/24 03:16:03;;;;;;;0.10;0.10;;;;;;;;;;4993855;28;20038;-88
2023/07/24 03:18:32;;;;;;;0.15;0.15;;;;;;;;;;4977277;28;20043;-91
2023/07/24 03:21:02;;;;;;;0.00;0.00;;;;;;;;;;4977524;28;20050;-89
2023/07/24 03:23:30;;;;;;;0.10;0.10;;;;;;;;;;4993372;28;20061;-89
2023/07/24 03:26:05;;;;;;;0.10;0.10;;;;;;;;;;4991974;28;20511;-88
2023/07/24 03:28:33;;;;;;;0.10;0.10;;;;;;;;;;4976916;28;20039;-89
2023/07/24 03:31:00;;;;;;;0.10;0.10;;;;;;;;;;4977410;28;20034;-89
2023/07/24 03:33:28;;;;;;;0.10;0.10;;;;;;;;;;4978644;28;20027;-88
2023/07/24 03:36:03;;;;;;;0.10;0.10;;;;;;;;;;4994448;28;20051;-90
2023/07/24 03:38:29;;;;;;;0.03;0.03;;;;;;;;;;4977151;28;20042;-87
2023/07/24 03:40:59;;;;;;;0.10;0.10;;;;;;;;;;4976308;28;20095;-90
2023/07/24 03:43:28;;;;;;;0.10;0.10;;;;;;;;;;4976731;28;20030;-89
2023/07/24 03:45:54;;;;;;;0.00;0.00;;;;;;;;;;4977545;28;20042;-88
2023/07/24 03:48:22;;;;;;;0.10;0.10;;;;;;;;;;4976947;28;20130;-88
2023/07/24 03:50:49;;;;;;;0.13;0.13;;;;;;;;;;4977161;28;20038;-91
2023/07/24 03:53:22;;;;;;;0.10;0.10;;;;;;;;;;4993250;28;20049;-92
2023/07/24 03:55:49;;;;;;;0.10;0.10;;;;;;;;;;4976206;28;20054;-90
2023/07/24 03:58:16;;;;;;;0.10;0.10;;;;;;;;;;4992902;28;20050;-91
2023/07/24 04:00:42;;;;;;;0.20;0.20;;;;;;;;;;4977977;28;20031;-91
2023/07/24 04:03:09;;;;;;;0.10;0.10;;;;;;;;;;4992324;28;20034;-89
2023/07/24 04:05:42;;;;;;;0.10;0.10;;;;;;;;;;4974603;28;20042;-88
2023/07/24 04:08:11;;;;;;;0.10;0.10;;;;;;;;;;4991275;28;20053;-88
2023/07/24 04:10:39;;;;;;;0.20;0.20;;;;;;;;;;4962095;28;20048;-87
2023/07/24 04:13:05;;;;;;;0.10;0.10;;;;;;;;;;4975225;28;20043;-88
2023/07/24 04:15:31;;;;;;;0.00;0.00;;;;;;;;;;4976044;28;20062;-91
2023/07/24 04:17:57;;;;;;;0.08;0.08;;;;;;;;;;4974851;28;20034;-91
2023/07/24 04:20:23;;;;;;;0.10;0.10;;;;;;;;;;4976686;28;20038;-90
2023/07/24 04:22:58;;;;;;;0.10;0.10;;;;;;;;;;4992562;28;20047;-90
2023/07/24 04:25:24;;;;;;;0.00;0.00;;;;;;;;;;4974028;28;20054;-90
2023/07/24 04:27:56;;;;;;;0.05;0.05;;;;;;;;;;4992861;28;20027;-87
2023/07/24 04:30:26;;;;;;;0.10;0.10;;;;;;;;;;4976173;28;20039;-88
2023/07/24 04:32:55;;;;;;;0.10;0.10;;;;;;;;;;4978321;28;20094;-89
2023/07/24 04:35:25;;;;;;;0.10;0.10;;;;;;;;;;4983908;28;20050;-89
2023/07/24 04:37:51;;;;;;;0.10;0.10;;;;;;;;;;4992162;28;20031;-90
2023/07/24 04:40:20;;;;;;;0.10;0.10;;;;;;;;;;4991496;28;20053;-91
2023/07/24 04:42:49;;;;;;;0.00;0.00;;;;;;;;;;4989453;28;20034;-89
2023/07/24 04:45:15;;;;;;;0.00;0.00;;;;;;;;;;4969546;28;20064;-90
2023/07/24 04:47:41;;;;;;;0.00;0.00;;;;;;;;;;4974808;28;20091;-89
2023/07/24 04:50:08;;;;;;;0.10;0.10;;;;;;;;;;4975534;28;20070;-90
2023/07/24 04:52:35;;;;;;;0.10;0.10;;;;;;;;;;4976292;28;20043;-89
2023/07/24 04:55:02;;;;;;;0.00;0.00;;;;;;;;;;4975008;28;20046;-87
2023/07/24 04:57:28;;;;;;;0.00;0.00;;;;;;;;;;4975578;28;20023;-88
2023/07/24 04:59:57;;;;;;;0.00;0.00;;;;;;;;;;4992674;28;20055;-89
2023/07/24 05:02:23;;;;;;;0.00;0.00;;;;;;;;;;4960551;28;20046;-90
2023/07/24 05:04:53;;;;;;;0.10;0.10;;;;;;;;;;4974836;28;20053;-91
2023/07/24 05:07:20;;;;;;;0.08;0.08;;;;;;;;;;4975446;28;20057;-89
2023/07/24 05:09:46;;;;;;;0.00;0.00;;;;;;;;;;4973959;28;20026;-87
2023/07/24 05:12:13;;;;;;;0.10;0.10;;;;;;;;;;4975529;28;20027;-92
2023/07/24 05:14:40;;;;;;;0.10;0.10;;;;;;;;;;4975258;28;20076;-89
2023/07/24 05:17:07;;;;;;;0.20;0.20;;;;;;;;;;4975549;28;20073;-89
2023/07/24 05:19:34;;;;;;;0.05;0.05;;;;;;;;;;4976493;28;20416;-89
2023/07/24 05:22:07;;;;;;;0.10;0.10;;;;;;;;;;4992805;28;20042;-91
2023/07/24 05:24:54;;;;;;;0.10;0.10;;;;;;;;;;4993961;28;20092;-88
2023/07/24 05:27:20;;;;;;;0.08;0.08;;;;;;;;;;4978430;28;20039;-90
2023/07/24 05:29:46;;;;;;;0.10;0.10;;;;;;;;;;4960288;28;20035;-92
2023/07/24 05:32:13;;;;;;;0.00;0.00;;;;;;;;;;4974939;28;20134;-89
2023/07/24 05:34:39;;;;;;;0.17;0.17;;;;;;;;;;5000807;22;20050;-89
2023/07/24 05:37:06;;;;;;;0.10;0.10;;;;;;;;;;4978482;28;20556;-90
2023/07/24 05:39:34;;;;;;;0.10;0.10;;;;;;;;;;4992984;28;20029;-89
2023/07/24 05:42:06;;;;;;;0.00;0.00;;;;;;;;;;5271239;23;20461;-91
2023/07/24 05:44:33;;;;;;;0.20;0.20;;;;;;;;;;5096232;28;20043;-90
2023/07/24 05:47:28;;;;;;;0.20;0.20;;;;;;;;;;5097759;28;20024;-91
2023/07/24 05:49:57;;;;;;;0.03;0.03;;;;;;;;;;5097419;28;20068;-90
2023/07/24 05:52:29;;;;;;;0.00;0.00;;;;;;;;;;5096530;28;20044;-91
2023/07/24 05:54:59;;;;;;;0.00;0.00;;;;;;;;;;5096968;28;20088;-89
2023/07/24 05:57:25;;;;;;;0.10;0.10;;;;;;;;;;5096459;28;20046;-91
2023/07/24 05:59:54;;;;;;;0.10;0.10;;;;;;;;;;5114014;28;20040;-89
2023/07/24 06:02:22;;;;;;;0.03;0.03;;;;;;;;;;5113966;28;20020;-93
2023/07/24 06:04:54;;;;;;;0.10;0.10;;;;;;;;;;5114745;28;20027;-88
2023/07/24 06:07:22;;;;;;;0.10;0.10;;;;;;;;;;5094004;28;20048;-90
2023/07/24 06:09:51;;;;;;;0.10;0.10;;;;;;;;;;5114160;28;20101;-89
2023/07/24 06:12:38;;;;;;;0.00;0.00;;;;;;;;;;5061102;28;20071;-89
2023/07/24 06:17:45;;;;;;;0.00;0.00;;;;;;;;;;5252118;22;20144;-90
2023/07/24 06:31:00;;;;;;;0.03;0.03;;;;;;;;;;5201370;22;20032;-90
2023/07/24 06:38:43;;;;;;;0.00;0.00;;;;;;;;;;5208653;22;20553;-91
2023/07/24 06:44:10;;;;;;;0.10;0.10;;;;;;;;;;5560879;22;20053;-90
2023/07/24 08:04:54;;;;;;;0.10;0.10;;;;;;;;;;5073003;26;20052;-85
2023/07/24 08:07:20;;;;;;;0.00;0.00;;;;;;;;;;5053429;28;20021;-85
2023/07/24 08:09:48;;;;;;;0.00;0.00;;;;;;;;;;5070212;28;20041;-88
2023/07/24 08:12:14;;;;;;;0.00;0.00;;;;;;;;;;5054005;28;20041;-86
2023/07/24 08:14:41;;;;;;;0.00;0.00;;;;;;;;;;5072672;28;20080;-87
2023/07/24 08:17:07;;;;;;;0.00;0.00;;;;;;;;;;5044017;28;20051;-86
2023/07/24 08:19:40;;;;;;;0.00;0.00;;;;;;;;;;5035854;28;20033;-88
2023/07/24 08:22:07;;;;;;;0.00;0.00;;;;;;;;;;5037033;28;20107;-88
2023/07/24 08:24:45;;;;;;;0.00;0.00;;;;;;;;;;5035386;28;20017;-86
2023/07/24 08:27:12;;;;;;;0.10;0.10;;;;;;;;;;5064013;28;20059;-87
2023/07/24 08:29:46;;;;;;;0.00;0.00;;;;;;;;;;5071997;28;20037;-88
2023/07/24 08:32:15;;;;;;;0.05;0.05;;;;;;;;;;5067554;28;20049;-87
2023/07/24 08:34:41;;;;;;;0.10;0.10;;;;;;;;;;5071194;28;20035;-89
2023/07/24 08:37:17;;;;;;;0.08;0.08;;;;;;;;;;5073935;28;20097;-87
2023/07/24 08:39:43;;;;;;;0.10;0.10;;;;;;;;;;5071277;28;20391;-86
2023/07/24 08:42:10;;;;;;;0.10;0.10;;;;;;;;;;5055639;28;20136;-88
2023/07/24 08:44:43;;;;;;;0.10;0.10;;;;;;;;;;5038227;28;20037;-87
2023/07/24 08:47:21;;;;;;;0.00;0.00;;;;;;;;;;5038555;28;20079;-87
2023/07/24 08:49:47;;;;;;;0.10;0.10;;;;;;;;;;5032381;28;20191;-87
2023/07/24 08:52:15;;;;;;;0.20;0.20;;;;;;;;;;5068312;28;20021;-88
2023/07/24 08:54:48;;;;;;;0.00;0.00;;;;;;;;;;5054081;28;20486;-86
2023/07/24 08:57:15;;;;;;;0.10;0.10;;;;;;;;;;5054331;28;20063;-87
2023/07/24 08:59:44;;;;;;;0.00;0.00;;;;;;;;;;5058861;28;20024;-87
2023/07/24 09:02:33;;;;;;;0.10;0.10;;;;;;;;;;5061867;28;20062;-85
2023/07/24 09:05:03;;;;;;;0.08;0.08;;;;;;;;;;5055303;28;20045;-86
2023/07/24 09:10:33;;;;;;;0.00;0.00;;;;;;;;;;5127387;22;20029;-84
2023/07/24 09:13:04;;;;;;;0.00;0.00;;;;;;;;;;5055801;28;20041;-87
2023/07/24 09:15:46;;;;;;;0.10;0.10;;;;;;;;;;5059365;28;20048;-86
2023/07/24 09:18:18;;;;;;;0.10;0.10;;;;;;;;;;5047889;28;20096;-86
2023/07/24 09:20:50;;;;;;;0.10;0.10;;;;;;;;;;5056017;28;20047;-87
2023/07/24 09:23:27;;;;;;;0.00;0.00;;;;;;;;;;5052283;28;20025;-85
2023/07/24 09:25:54;;;;;;;0.10;0.10;;;;;;;;;;5074229;28;20033;-85
2023/07/24 09:28:23;;;;;;;0.00;0.00;;;;;;;;;;5039190;28;20056;-87
2023/07/24 09:30:53;;;;;;;0.00;0.00;;;;;;;;;;5050710;28;20491;-85
2023/07/24 10:47:51;;;;;;;0.10;0.10;;;;;;;;;;529336;26;20682;-87
2023/07/24 10:50:17;;;;;;;0.10;0.10;;;;;;;;;;5090974;28;20134;-87
2023/07/24 10:53:10;;;;;;;0.05;0.05;;;;;;;;;;5074170;28;20109;-87
2023/07/24 10:55:36;;;;;;;0.10;0.10;;;;;;;;;;5060020;28;20044;-85
2023/07/24 10:58:06;;;;;;;0.10;0.10;;;;;;;;;;5069858;28;20044;-85
2023/07/24 11:00:34;;;;;;;0.00;0.00;;;;;;;;;;5072529;28;20040;-85
2023/07/24 11:03:00;;;;;;;0.00;0.00;;;;;;;;;;5072686;28;20482;-85
2023/07/24 11:05:26;;;;;;;0.10;0.10;;;;;;;;;;5074604;28;20089;-85
2023/07/24 11:07:55;;;;;;;0.10;0.10;;;;;;;;;;5089693;28;20045;-86
2023/07/24 11:10:23;;;;;;;0.00;0.00;;;;;;;;;;5068818;28;20054;-86
2023/07/24 11:12:51;;;;;;;0.00;0.00;;;;;;;;;;5090226;28;20052;-87
2023/07/24 11:15:24;;;;;;;0.00;0.00;;;;;;;;;;5084507;28;20044;-87
2023/07/24 11:21:09;;;;;;;0.10;0.10;;;;;;;;;;5091603;28;20052;-86
2023/07/24 11:23:56;;;;;;;0.00;0.00;;;;;;;;;;5068323;28;20036;-89
2023/07/24 11:26:37;;;;;;;0.00;0.00;;;;;;;;;;5070782;28;20096;-87
2023/07/24 11:29:15;;;;;;;0.10;0.10;;;;;;;;;;5058736;28;20083;-86
2023/07/24 11:35:10;;;;;;;0.00;0.00;;;;;;;;;;5070287;28;20032;-87
2023/07/24 11:37:48;;;;;;;0.00;0.00;;;;;;;;;;5053182;28;20048;-87
2023/07/24 11:40:15;;;;;;;0.10;0.10;;;;;;;;;;5049871;28;20064;-87
2023/07/24 11:42:56;;;;;;;0.00;0.00;;;;;;;;;;5056014;28;20108;-87
2023/07/24 11:48:56;;;;;;;0.00;0.00;;;;;;;;;;5030829;28;20065;-88
2023/07/24 11:51:49;;;;;;;;;;;;;;;;;;;;;
2023/07/24 11:54:28;;;;;;;0.10;0.10;;;;;;;;;;5000899;28;20056;-85
2023/07/24 12:03:29;;;;;;;0.10;0.10;;;;;;;;;;5052061;28;20202;-87
2023/07/24 12:05:57;;;;;;;0.00;0.00;;;;;;;;;;5060559;28;20029;-87
2023/07/24 12:08:31;;;;;;;0.00;0.00;;;;;;;;;;5049852;28;20091;-88
2023/07/24 13:03:08;;;;;;;0.00;0.00;;;;;;;;;;5028267;28;20046;-88
2023/07/24 13:05:38;;;;;;;0.10;0.10;;;;;;;;;;5011926;28;20411;-86
2023/07/24 13:08:04;;;;;;;0.00;0.00;;;;;;;;;;5015548;28;20041;-86
2023/07/24 13:10:30;;;;;;;0.10;0.10;;;;;;;;;;5026643;28;20084;-85
2023/07/24 13:12:58;;;;;;;0.00;0.00;;;;;;;;;;5025820;28;20049;-87
2023/07/24 13:15:25;;;;;;;0.00;0.00;;;;;;;;;;5013971;28;20045;-86
2023/07/24 13:17:54;;;;;;;0.00;0.00;;;;;;;;;;5011214;28;20045;-86
2023/07/24 13:20:21;;;;;;;0.08;0.08;;;;;;;;;;5028292;28;20046;-85
2023/07/24 13:22:53;;;;;;;0.00;0.00;;;;;;;;;;5028522;28;20077;-86
2023/07/24 13:25:21;;;;;;;0.10;0.10;;;;;;;;;;5012154;28;20064;-87
2023/07/24 13:27:53;;;;;;;0.00;0.00;;;;;;;;;;5011327;28;20042;-84
2023/07/24 13:30:21;;;;;;;0.05;0.05;;;;;;;;;;5031721;28;20085;-86
2023/07/24 13:32:48;;;;;;;0.00;0.00;;;;;;;;;;5029597;28;20081;-86
2023/07/24 13:35:18;;;;;;;0.05;0.05;;;;;;;;;;5014052;28;20065;-85
2023/07/24 13:37:49;;;;;;;0.00;0.00;;;;;;;;;;5030494;28;20068;-87
2023/07/24 13:40:32;;;;;;;0.10;0.10;;;;;;;;;;5033878;28;20105;-87
2023/07/24 13:42:58;;;;;;;0.10;0.10;;;;;;;;;;5017030;28;20052;-86
2023/07/24 13:45:49;;;;;;;0.10;0.10;;;;;;;;;;5019512;28;20074;-85
2023/07/24 13:48:15;;;;;;;0.17;0.17;;;;;;;;;;5015335;28;20045;-86
2023/07/24 13:50:50;;;;;;;0.10;0.10;;;;;;;;;;5034331;28;20516;-86
2023/07/24 13:53:20;;;;;;;0.10;0.10;;;;;;;;;;5018515;28;20046;-85
2023/07/24 13:55:46;;;;;;;0.00;0.00;;;;;;;;;;5016264;28;20034;-85
2023/07/24 13:58:15;;;;;;;0.00;0.00;;;;;;;;;;5034560;28;20050;-86
2023/07/24 14:00:41;;;;;;;0.10;0.10;;;;;;;;;;5032940;28;20028;-87
2023/07/24 14:03:21;;;;;;;0.00;0.00;;;;;;;;;;5028263;28;20075;-87
2023/07/24 14:05:50;;;;;;;0.00;0.00;;;;;;;;;;5032303;28;20042;-86
2023/07/24 14:08:18;;;;;;;0.10;0.10;;;;;;;;;;5015242;28;20045;-87
2023/07/24 14:10:47;;;;;;;0.10;0.10;;;;;;;;;;5019364;28;20098;-92
2023/07/24 15:20:44;;;;;;;0.00;0.00;;;;;;;;;;1188109;26;20058;-87
2023/07/24 15:23:14;;;;;;;0.00;0.00;;;;;;;;;;5080963;28;20119;-83
2023/07/24 15:25:46;;;;;;;0.10;0.10;;;;;;;;;;5114045;28;20059;-84
2023/07/24 15:28:13;;;;;;;0.00;0.00;;;;;;;;;;5090832;28;20023;-84
2023/07/24 15:30:39;;;;;;;0.05;0.05;;;;;;;;;;5091946;28;20032;-84
2023/07/24 15:33:05;;;;;;;0.10;0.10;;;;;;;;;;5090659;28;20044;-84
2023/07/24 15:35:33;;;;;;;0.10;0.10;;;;;;;;;;5074977;28;20040;-86
2023/07/24 15:38:01;;;;;;;0.10;0.10;;;;;;;;;;5072974;28;20048;-85
2023/07/24 15:40:30;;;;;;;0.10;0.10;;;;;;;;;;5090730;28;20047;-86
2023/07/24 15:43:12;;;;;;;0.00;0.00;;;;;;;;;;5089220;28;20082;-86
2023/07/24 15:45:49;;;;;;;0.00;0.00;;;;;;;;;;5071006;28;20036;-83
2023/07/24 15:48:19;;;;;;;0.30;0.30;;;;;;;;;;5079482;28;20048;-88
2023/07/24 15:51:21;;;;;;;0.10;0.10;;;;;;;;;;5073875;28;20039;-88
2023/07/24 15:53:48;;;;;;;0.00;0.00;;;;;;;;;;5061797;28;20127;-89
2023/07/24 15:56:17;;;;;;;0.00;0.00;;;;;;;;;;5085608;28;20056;-88
2023/07/24 15:58:44;;;;;;;0.10;0.10;;;;;;;;;;5062590;28;20043;-91
2023/07/24 16:01:10;;;;;;;0.00;0.00;;;;;;;;;;5073482;28;20059;-91
2023/07/24 17:09:19;;;;;;;0.10;0.10;;;;;;;;;;5072407;28;20041;-85
2023/07/24 17:11:46;;;;;;;0.00;0.00;;;;;;;;;;5070745;28;20048;-85
2023/07/24 17:17:52;;;;;;;;;;;;;;;;;;;;;
2023/07/24 17:20:21;;;;;;;0.10;0.10;;;;;;;;;;5053611;28;20078;-87
2023/07/24 17:22:50;;;;;;;0.03;0.03;;;;;;;;;;5066908;28;20092;-85
2023/07/24 17:25:31;;;;;;;0.10;0.10;;;;;;;;;;5055813;28;20056;-84
2023/07/24 17:28:15;;;;;;;0.00;0.00;;;;;;;;;;5067301;28;20033;-86
2023/07/24 17:34:02;;;;;;;0.00;0.00;;;;;;;;;;5060215;28;20041;-86
2023/07/24 17:36:29;;;;;;;0.10;0.10;;;;;;;;;;5060983;28;20461;-85
2023/07/24 17:38:58;;;;;;;0.08;0.08;;;;;;;;;;5053429;28;20053;-85
2023/07/24 17:52:37;;;;;;;0.10;0.10;;;;;;;;;;5655800;22;15048179;-84
2023/07/24 17:55:04;;;;;;;0.00;0.00;;;;;;;;;;6305099;22;20047;-84
2023/07/24 17:57:40;;;;;;;0.10;0.10;;;;;;;;;;6281118;22;20031;-84
2023/07/24 18:03:23;;;;;;;0.10;0.10;;;;;;;;;;6312505;22;20009;-83
2023/07/24 18:06:07;;;;;;;0.00;0.00;;;;;;;;;;6299756;22;20023;-85
2023/07/24 18:08:42;;;;;;;0.08;0.08;;;;;;;;;;6305246;22;20075;-86
2023/07/24 18:14:49;;;;;;;0.00;0.00;;;;;;;;;;6322379;22;20025;-86
2023/07/24 18:17:43;;;;;;;0.10;0.10;;;;;;;;;;6249751;23;20076;-85
2023/07/24 18:20:14;;;;;;;0.10;0.10;;;;;;;;;;6267329;22;20015;-85
2023/07/24 18:22:46;;;;;;;0.10;0.10;;;;;;;;;;6304631;22;20011;-84
2023/07/24 18:25:16;;;;;;;0.00;0.00;;;;;;;;;;6280166;22;20479;-85
2023/07/24 18:27:44;;;;;;;0.10;0.10;;;;;;;;;;6308732;22;20022;-84
2023/07/24 18:30:23;;;;;;;0.00;0.00;;;;;;;;;;6305910;22;20056;-87
2023/07/24 18:33:02;;;;;;;0.20;0.20;;;;;;;;;;6338252;22;20000;-84
2023/07/24 18:35:31;;;;;;;0.10;0.10;;;;;;;;;;6323557;22;20015;-85
2023/07/24 18:38:26;;;;;;;0.10;0.10;;;;;;;;;;6311093;22;20003;-84
2023/07/24 18:40:57;;;;;;;0.05;0.05;;;;;;;;;;6306432;22;20015;-84
2023/07/24 18:43:24;;;;;;;0.10;0.10;;;;;;;;;;6307609;22;20098;-85
2023/07/24 18:45:51;;;;;;;0.10;0.10;;;;;;;;;;6270467;22;20015;-86
2023/07/24 18:48:23;;;;;;;0.10;0.10;;;;;;;;;;6274453;22;20444;-85
2023/07/24 18:51:02;;;;;;;0.08;0.08;;;;;;;;;;6276142;22;20018;-85
2023/07/24 18:53:31;;;;;;;0.00;0.00;;;;;;;;;;6289024;22;20087;-87
2023/07/24 18:55:58;;;;;;;0.10;0.10;;;;;;;;;;6285135;22;20656;-85
2023/07/24 18:58:54;;;;;;;0.05;0.05;;;;;;;;;;6226526;23;20004;-85
2023/07/24 19:01:20;;;;;;;0.10;0.10;;;;;;;;;;6256206;22;20437;-85
2023/07/24 19:03:54;;;;;;;0.10;0.10;;;;;;;;;;6296240;22;20019;-84
2023/07/24 19:06:20;;;;;;;0.00;0.00;;;;;;;;;;6303484;22;20609;-85
2023/07/24 19:09:00;;;;;;;0.00;0.00;;;;;;;;;;6290702;22;20026;-86
2023/07/24 19:11:31;;;;;;;0.03;0.03;;;;;;;;;;6272573;22;20022;-85
2023/07/24 19:14:31;;;;;;;0.00;0.00;;;;;;;;;;6297722;22;20031;-84
2023/07/24 19:17:07;;;;;;;0.08;0.08;;;;;;;;;;6281016;22;20024;-85
2023/07/24 19:19:33;;;;;;;0.00;0.00;;;;;;;;;;6265432;22;20020;-85
2023/07/24 19:25:29;;;;;;;0.03;0.03;;;;;;;;;;6311739;22;19999;-90
2023/07/24 19:31:12;;;;;;;0.10;0.10;;;;;;;;;;6306848;22;20023;-89
2023/07/24 19:40:22;;;;;;;0.08;0.08;;;;;;;;;;6375776;22;20018;-90
2023/07/24 19:42:53;;;;;;;;;;;;;;;;;;6305139;22;20015;-85
2023/07/24 19:45:26;;;;;;;0.00;0.00;;;;;;;;;;6306063;22;19920;-88
2023/07/24 19:47:59;;;;;;;0.10;0.10;;;;;;;;;;6291798;22;20007;-90
2023/07/24 19:50:58;;;;;;;0.10;0.10;;;;;;;;;;6282141;22;20019;-89
2023/07/24 19:53:25;;;;;;;0.10;0.10;;;;;;;;;;6292766;22;20008;-85
2023/07/24 19:56:01;;;;;;;0.10;0.10;;;;;;;;;;6269853;22;20004;-84
2023/07/24 19:58:27;;;;;;;0.08;0.08;;;;;;;;;;6269950;22;20024;-84
2023/07/24 20:00:59;;;;;;;0.00;0.00;;;;;;;;;;6296144;22;20008;-85
2023/07/24 20:03:31;;;;;;;0.13;0.13;;;;;;;;;;6306725;22;20030;-85
2023/07/24 20:06:01;;;;;;;0.13;0.13;;;;;;;;;;6273526;22;20004;-85
2023/07/24 20:08:30;;;;;;;0.10;0.10;;;;;;;;;;6256154;22;20099;-86
2023/07/24 20:14:18;;;;;;;;;;;;;;;;;;6203469;23;20032;-85
2023/07/24 20:16:44;;;;;;;0.10;0.10;;;;;;;;;;6248437;22;20226;-86
2023/07/24 20:19:15;;;;;;;0.10;0.10;;;;;;;;;;6266125;22;20022;-87
2023/07/24 20:22:04;;;;;;;0.10;0.10;;;;;;;;;;6240815;22;20023;-85
2023/07/24 20:24:31;;;;;;;0.10;0.10;;;;;;;;;;6271300;22;20027;-86
2023/07/24 20:43:14;;;;;;;0.00;0.00;;;;;;;;;;6423315;22;20088;-86
2023/07/24 20:45:42;;;;;;;0.10;0.10;;;;;;;;;;6394143;22;20020;-86
2023/07/24 20:48:24;;;;;;;0.10;0.10;;;;;;;;;;6393221;22;20028;-85
2023/07/24 20:50:50;;;;;;;0.10;0.10;;;;;;;;;;6427442;22;20013;-85
2023/07/24 21:01:25;;;;;;;0.10;0.10;;;;;;;;;;6238225;22;20004;-84
2023/07/24 21:17:50;;;;;;;0.00;0.00;;;;;;;;;;6276918;22;20032;-86
2023/07/24 21:20:40;;;;;;;0.10;0.10;;;;;;;;;;6298235;22;20088;-84
2023/07/24 21:23:08;;;;;;;0.10;0.10;;;;;;;;;;6232044;22;20012;-83
2023/07/24 21:25:43;;;;;;;0.10;0.10;;;;;;;;;;6245621;22;20019;-84
2023/07/24 21:33:41;;;;;;;0.10;0.10;;;;;;;;;;6282786;22;20023;-84
2023/07/24 21:36:07;;;;;;;0.10;0.10;;;;;;;;;;6236850;22;20028;-84
2023/07/24 21:44:51;;;;;;;0.00;0.00;;;;;;;;;;6289936;22;20241;-87
2023/07/24 21:47:29;;;;;;;0.10;0.10;;;;;;;;;;6265759;22;20018;-87
2023/07/24 21:50:19;;;;;;;0.10;0.10;;;;;;;;;;6249718;22;20016;-86
2023/07/24 21:52:51;;;;;;;0.05;0.05;;;;;;;;;;6245976;22;20027;-87
2023/07/24 21:55:41;;;;;;;0.10;0.10;;;;;;;;;;6267120;22;20098;-86
2023/07/24 21:58:18;;;;;;;0.00;0.00;;;;;;;;;;6245275;22;20010;-85
2023/07/24 22:00:54;;;;;;;0.10;0.10;;;;;;;;;;6244791;22;20008;-86
2023/07/24 22:03:25;;;;;;;0.20;0.20;;;;;;;;;;6221340;22;20012;-86
2023/07/24 22:05:57;;;;;;;0.10;0.10;;;;;;;;;;6218604;22;20107;-88
2023/07/24 22:08:32;;;;;;;0.00;0.00;;;;;;;;;;6246476;22;20067;-88
2023/07/24 22:11:14;;;;;;;0.10;0.10;;;;;;;;;;6235262;22;20465;-86
2023/07/24 22:13:52;;;;;;;0.10;0.10;;;;;;;;;;6235549;22;20020;-86
2023/07/24 22:16:36;;;;;;;0.10;0.10;;;;;;;;;;6247070;22;20012;-87
2023/07/24 22:19:02;;;;;;;0.10;0.10;;;;;;;;;;6238819;22;20015;-88
2023/07/24 22:21:43;;;;;;;0.05;0.05;;;;;;;;;;6270367;22;20031;-90
2023/07/24 22:24:13;;;;;;;0.20;0.20;;;;;;;;;;6275207;22;20051;-91
2023/07/24 22:26:53;;;;;;;0.20;0.20;;;;;;;;;;6282205;22;20008;-88
2023/07/24 23:24:01;;;;;;;0.20;0.20;;;;;;;;;;6308147;22;20032;-91
2023/07/24 23:26:36;;;;;;;0.20;0.20;;;;;;;;;;6223444;22;20048;-91
2023/07/24 23:29:04;;;;;;;0.03;0.03;;;;;;;;;;6247689;22;20000;-90
2023/07/24 23:32:01;;;;;;;0.10;0.10;;;;;;;;;;6246709;22;20000;-92
2023/07/24 23:34:51;;;;;;;0.10;0.10;;;;;;;;;;6275834;22;20015;-91
2023/07/24 23:37:26;;;;;;;;;;;;;;;;;;6248244;22;20020;-92
2023/07/24 23:40:11;;;;;;;0.10;0.10;;;;;;;;;;6297964;22;19963;-91
2023/07/24 23:42:42;;;;;;;0.10;0.10;;;;;;;;;;6247206;22;20064;-92
2023/07/24 23:45:26;;;;;;;0.20;0.20;;;;;;;;;;6293487;22;20331;-91
2023/07/24 23:47:59;;;;;;;0.28;0.28;;;;;;;;;;6270049;22;20024;-92
2023/07/24 23:50:41;;;;;;;0.10;0.10;;;;;;;;;;6273897;22;20020;-89
2023/07/24 23:53:17;;;;;;;0.10;0.10;;;;;;;;;;6298016;22;20024;-93
2023/07/24 23:55:46;;;;;;;0.10;0.10;;;;;;;;;;6297749;22;20015;-90